Time;durP1;ratioP1;P1;durP2;ratioP2;P2;SDS_P1;SDS_P2;PMS_P1;PMS_P2;Temp;Humidity;BMP_temperature;BMP_pressure;BME280_temperature;BME280_humidity;BME280_pressure;Samples;Min_cycle;Max_cycle;Signal;HPM_P1;HPM_P2
2021/12/03 00:02:23;;;;;;;12.07;5.80;;;;;;;5.81;92.77;93413.78;5039098;22;20621;-60
2021/12/03 00:04:49;;;;;;;6.70;4.73;;;;;;;5.63;94.77;93405.28;5030425;28;20564;-62
2021/12/03 00:07:14;;;;;;;5.40;3.90;;;;;;;5.78;94.10;93416.53;5032097;28;20253;-59
2021/12/03 00:09:40;;;;;;;6.73;3.80;;;;;;;5.91;93.40;93433.06;5032104;28;20181;-59
2021/12/03 00:12:06;;;;;;;6.00;4.40;;;;;;;6.03;90.95;93481.63;5013912;28;20208;-60
2021/12/03 00:14:34;;;;;;;7.60;4.17;;;;;;;6.31;90.26;93455.63;5031508;28;20231;-61
2021/12/03 00:16:59;;;;;;;6.20;3.80;;;;;;;6.60;88.56;93466.47;5031789;28;20220;-61
2021/12/03 00:19:25;;;;;;;11.00;4.10;;;;;;;6.60;88.28;93490.91;5031532;28;20210;-62
2021/12/03 00:21:50;;;;;;;5.70;3.27;;;;;;;6.74;87.89;93463.53;5030398;28;20269;-63
2021/12/03 00:24:16;;;;;;;7.43;3.80;;;;;;;7.03;87.30;93433.09;5031972;28;20177;-61
2021/12/03 00:26:42;;;;;;;7.00;3.57;;;;;;;6.92;87.89;93470.38;5031593;28;20233;-62
2021/12/03 00:29:08;;;;;;;5.37;3.57;;;;;;;6.91;87.62;93489.78;5031554;28;20414;-61
2021/12/03 00:31:34;;;;;;;7.00;4.07;;;;;;;6.46;89.77;93443.38;5031432;28;20682;-63
2021/12/03 00:33:59;;;;;;;6.27;4.20;;;;;;;6.79;89.32;93445.41;5031554;28;20205;-60
2021/12/03 00:36:26;;;;;;;4.93;3.40;;;;;;;6.88;88.40;93431.19;5031680;28;20236;-61
2021/12/03 00:38:55;;;;;;;5.00;3.20;;;;;;;7.32;86.00;93488.59;5031045;28;20216;-60
2021/12/03 00:41:21;;;;;;;4.30;2.40;;;;;;;7.52;85.19;93518.72;5030022;28;20206;-59
2021/12/03 00:43:51;;;;;;;6.47;3.47;;;;;;;7.44;85.26;93498.41;5031607;28;20198;-63
2021/12/03 00:46:18;;;;;;;6.10;3.70;;;;;;;7.30;85.69;93493.00;5031216;28;20612;-62
2021/12/03 00:48:47;;;;;;;5.17;3.07;;;;;;;7.28;86.69;93510.03;5031477;28;20181;-63
2021/12/03 00:51:14;;;;;;;3.80;2.97;;;;;;;7.47;83.98;93535.25;5029921;28;20329;-62
2021/12/03 00:53:40;;;;;;;2.87;2.47;;;;;;;7.77;83.88;93496.25;5031133;28;20181;-63
2021/12/03 00:56:07;;;;;;;4.77;3.30;;;;;;;7.91;82.66;93486.44;5029834;28;20247;-61
2021/12/03 00:58:33;;;;;;;4.83;2.43;;;;;;;7.94;84.00;93491.19;5030991;28;20291;-62
2021/12/03 01:00:59;;;;;;;3.57;1.80;;;;;;;7.99;82.87;93506.75;5030794;28;20197;-60
2021/12/03 01:03:24;;;;;;;3.00;2.50;;;;;;;8.11;82.39;93518.28;5031576;28;20185;-62
2021/12/03 01:05:50;;;;;;;4.97;2.60;;;;;;;8.38;80.83;93555.44;5030995;28;20574;-62
2021/12/03 01:08:16;;;;;;;4.17;1.50;;;;;;;8.45;80.84;93549.66;5031176;28;20197;-61
2021/12/03 01:10:42;;;;;;;2.93;1.83;;;;;;;8.57;81.32;93521.56;5031135;28;20252;-61
2021/12/03 01:13:07;;;;;;;4.87;2.03;;;;;;;8.75;79.78;93538.34;5029631;28;20295;-60
2021/12/03 01:15:36;;;;;;;4.50;2.63;;;;;;;8.68;79.90;93561.88;5031186;28;20593;-63
2021/12/03 01:18:04;;;;;;;3.93;1.97;;;;;;;8.69;79.82;93583.72;5029952;28;20233;-62
2021/12/03 01:20:30;;;;;;;2.13;1.50;;;;;;;9.02;77.86;93557.72;5031225;28;20209;-60
2021/12/03 01:22:58;;;;;;;3.73;1.87;;;;;;;9.10;78.71;93517.22;5031436;28;20321;-61
2021/12/03 01:25:25;;;;;;;2.07;1.77;;;;;;;9.19;78.39;93541.69;5030900;28;20190;-61
2021/12/03 01:27:52;;;;;;;3.57;1.90;;;;;;;9.19;77.32;93541.69;5031045;28;20281;-60
2021/12/03 01:30:19;;;;;;;5.87;2.37;;;;;;;9.11;77.67;93537.34;5029608;28;20199;-60
2021/12/03 01:32:45;;;;;;;2.77;1.80;;;;;;;9.21;77.96;93547.41;5031303;28;20579;-62
2021/12/03 01:35:14;;;;;;;3.70;1.73;;;;;;;9.26;77.40;93540.94;5029596;28;20179;-59
2021/12/03 01:37:40;;;;;;;3.37;1.97;;;;;;;9.16;78.26;93541.97;5029699;28;20198;-61
2021/12/03 01:40:11;;;;;;;2.83;2.00;;;;;;;9.18;78.42;93517.25;5013161;28;20194;-61
2021/12/03 01:42:38;;;;;;;2.70;1.83;;;;;;;9.27;78.45;93512.06;5029614;28;20663;-61
2021/12/03 01:45:05;;;;;;;2.57;1.40;;;;;;;9.50;77.26;93530.13;5029509;28;20175;-60
2021/12/03 01:47:30;;;;;;;1.87;0.97;;;;;;;9.73;76.89;93530.38;5031212;28;20210;-61
2021/12/03 01:49:56;;;;;;;9.33;1.03;;;;;;;10.23;74.23;93581.19;5029638;28;20178;-63
2021/12/03 01:52:21;;;;;;;0.97;0.77;;;;;;;10.90;70.67;93632.69;5033526;28;20301;-62
2021/12/03 01:54:47;;;;;;;1.40;0.60;;;;;;;10.97;71.19;93590.41;5034413;28;20257;-60
2021/12/03 01:57:13;;;;;;;2.40;0.70;;;;;;;11.16;69.32;93619.81;5034517;28;20690;-63
2021/12/03 01:59:38;;;;;;;4.63;0.60;;;;;;;11.33;69.00;93613.75;5034357;28;20312;-61
2021/12/03 02:02:04;;;;;;;0.80;0.60;;;;;;;11.65;66.34;93618.84;5034175;28;20585;-62
2021/12/03 02:04:30;;;;;;;0.40;0.40;;;;;;;12.00;65.11;93665.28;5034237;28;20171;-60
2021/12/03 02:06:55;;;;;;;2.30;0.53;;;;;;;12.22;64.06;93656.94;5034390;28;20209;-64
2021/12/03 02:09:21;;;;;;;4.13;0.83;;;;;;;12.22;63.99;93639.09;5034057;28;20180;-64
2021/12/03 02:11:46;;;;;;;2.77;0.80;;;;;;;12.18;64.55;93602.16;5032759;28;20267;-59
2021/12/03 02:14:12;;;;;;;0.83;0.70;;;;;;;12.12;64.70;93620.66;5032833;28;20624;-65
2021/12/03 02:16:38;;;;;;;1.37;0.80;;;;;;;12.05;64.93;93619.72;5032329;28;20218;-62
2021/12/03 02:19:04;;;;;;;2.60;0.77;;;;;;;12.17;64.39;93626.03;5034113;28;20557;-63
2021/12/03 02:21:30;;;;;;;2.73;0.90;;;;;;;12.19;64.61;93616.47;5034027;28;20790;-59
2021/12/03 02:23:56;;;;;;;1.60;0.60;;;;;;;12.01;65.83;93570.06;5033808;28;20190;-60
2021/12/03 02:26:22;;;;;;;1.57;0.80;;;;;;;12.02;65.50;93585.16;5033817;28;20202;-59
2021/12/03 02:28:51;;;;;;;3.93;0.60;;;;;;;11.97;65.32;93587.44;5033720;28;20178;-64
2021/12/03 02:31:19;;;;;;;1.50;0.50;;;;;;;11.98;64.91;93578.03;5034032;28;20285;-61
2021/12/03 02:33:45;;;;;;;0.90;0.70;;;;;;;12.07;64.61;93580.41;5033685;28;20174;-61
2021/12/03 02:36:11;;;;;;;2.07;0.90;;;;;;;11.93;65.07;93563.25;5033361;28;20658;-62
2021/12/03 02:38:37;;;;;;;0.70;0.70;;;;;;;11.96;64.60;93592.69;5033757;28;20266;-61
2021/12/03 02:41:03;;;;;;;2.30;1.07;;;;;;;11.88;65.56;93562.16;5033282;28;20286;-60
2021/12/03 02:43:29;;;;;;;1.13;0.70;;;;;;;11.88;65.22;93574.91;5033771;28;20657;-61
2021/12/03 02:45:57;;;;;;;1.13;1.00;;;;;;;11.61;65.40;93553.94;5032015;28;20555;-61
2021/12/03 02:48:24;;;;;;;1.40;0.87;;;;;;;11.28;67.47;93511.69;5033351;28;20179;-61
2021/12/03 02:50:50;;;;;;;3.20;1.10;;;;;;;11.18;68.24;93460.22;5033442;28;20186;-64
2021/12/03 02:53:16;;;;;;;2.93;0.80;;;;;;;11.38;67.90;93489.41;5033268;28;20190;-62
2021/12/03 02:55:42;;;;;;;3.07;0.93;;;;;;;11.50;66.32;93536.47;5033125;28;20201;-63
2021/12/03 02:58:08;;;;;;;4.13;1.30;;;;;;;11.35;66.79;93527.88;5032969;28;20290;-62
2021/12/03 03:00:35;;;;;;;2.10;1.20;;;;;;;11.37;67.09;93533.59;5033426;28;20193;-63
2021/12/03 03:03:01;;;;;;;1.87;1.27;;;;;;;11.23;67.30;93519.00;5032659;28;20208;-60
2021/12/03 03:05:27;;;;;;;1.50;1.20;;;;;;;11.11;67.58;93534.78;5033151;28;20315;-61
2021/12/03 03:07:54;;;;;;;2.20;1.93;;;;;;;10.45;69.28;93479.00;5031702;28;20257;-59
2021/12/03 03:10:25;;;;;;;2.00;1.50;;;;;;;10.03;71.41;93454.50;5032813;28;20178;-59
2021/12/03 03:12:51;;;;;;;3.47;1.63;;;;;;;9.66;73.38;93436.31;5033392;28;20209;-61
2021/12/03 03:15:17;;;;;;;1.83;1.43;;;;;;;9.60;73.47;93441.22;5031448;28;20205;-62
2021/12/03 03:17:43;;;;;;;3.93;1.73;;;;;;;9.37;74.57;93433.38;5032527;28;20205;-61
2021/12/03 03:20:10;;;;;;;2.90;2.00;;;;;;;9.09;76.20;93409.19;5032668;28;20682;-62
2021/12/03 03:22:37;;;;;;;3.57;1.63;;;;;;;9.11;76.48;93397.16;5033040;28;20290;-63
2021/12/03 03:25:05;;;;;;;2.40;1.53;;;;;;;9.17;77.37;93397.31;5032515;28;20232;-61
2021/12/03 03:27:31;;;;;;;2.90;1.43;;;;;;;9.25;77.08;93416.84;5032805;28;20202;-62
2021/12/03 03:29:57;;;;;;;3.63;1.90;;;;;;;9.29;76.02;93418.13;5032489;28;20185;-62
2021/12/03 03:32:23;;;;;;;1.67;1.53;;;;;;;9.29;76.12;93438.41;5031076;28;20206;-60
2021/12/03 03:34:48;;;;;;;2.43;1.40;;;;;;;9.42;75.32;93445.56;5031469;28;20224;-61
2021/12/03 03:37:15;;;;;;;3.10;1.60;;;;;;;9.43;75.69;93453.06;5032680;28;20644;-63
2021/12/03 03:39:42;;;;;;;2.07;1.50;;;;;;;9.50;74.79;93446.41;5032516;28;20178;-60
2021/12/03 03:42:07;;;;;;;2.00;1.63;;;;;;;9.52;74.28;93464.81;5032479;28;20515;-60
2021/12/03 03:44:33;;;;;;;2.30;1.50;;;;;;;9.38;73.77;93488.22;5032383;28;20196;-62
2021/12/03 03:47:00;;;;;;;2.17;1.33;;;;;;;9.14;74.32;93476.22;5030749;28;20210;-62
2021/12/03 03:49:27;;;;;;;2.03;1.60;;;;;;;8.98;74.38;93467.72;5031005;28;20186;-61
2021/12/03 03:51:53;;;;;;;2.63;2.10;;;;;;;8.86;75.64;93434.22;5032358;28;20209;-61
2021/12/03 03:54:19;;;;;;;2.20;1.70;;;;;;;8.92;74.86;93473.38;5032389;28;20182;-62
2021/12/03 03:56:46;;;;;;;2.33;1.80;;;;;;;8.91;75.01;93471.78;5030551;28;20308;-63
2021/12/03 03:59:12;;;;;;;2.43;1.53;;;;;;;8.79;74.89;93478.03;5030694;28;20182;-61
2021/12/03 04:01:38;;;;;;;2.27;1.63;;;;;;;8.71;74.98;93493.97;5031819;28;20241;-63
2021/12/03 04:04:04;;;;;;;3.90;1.80;;;;;;;8.66;75.92;93463.25;5031788;28;20216;-61
2021/12/03 04:06:29;;;;;;;1.50;1.40;;;;;;;8.68;76.57;93446.16;5031768;28;20210;-60
2021/12/03 04:08:55;;;;;;;1.87;1.63;;;;;;;8.73;76.78;93418.63;5031845;28;20212;-61
2021/12/03 04:11:23;;;;;;;2.47;1.90;;;;;;;8.92;75.42;93456.44;5031812;28;20655;-62
2021/12/03 04:13:49;;;;;;;2.20;2.00;;;;;;;8.86;74.93;93500.13;5031160;28;20220;-62
2021/12/03 04:16:15;;;;;;;4.07;1.63;;;;;;;8.77;74.71;93490.03;5031919;28;20218;-61
2021/12/03 04:18:41;;;;;;;2.63;1.90;;;;;;;8.71;74.43;93476.25;5031971;28;20171;-60
2021/12/03 04:21:06;;;;;;;2.43;1.73;;;;;;;8.73;75.61;93459.16;5031623;28;20201;-62
2021/12/03 04:23:32;;;;;;;3.07;1.87;;;;;;;8.66;75.01;93482.69;5031802;28;20182;-63
2021/12/03 04:25:58;;;;;;;1.70;1.60;;;;;;;8.53;75.19;93467.88;5031709;28;20174;-60
2021/12/03 04:28:23;;;;;;;2.60;1.93;;;;;;;8.60;75.47;93463.03;5031944;28;20178;-62
2021/12/03 04:30:50;;;;;;;2.00;1.77;;;;;;;8.67;76.17;93448.81;5031426;28;20260;-63
2021/12/03 04:33:16;;;;;;;4.47;2.13;;;;;;;8.76;75.34;93469.00;5031515;28;20221;-63
2021/12/03 04:35:42;;;;;;;2.63;1.60;;;;;;;8.64;75.79;93475.25;5030085;28;20694;-63
2021/12/03 04:38:08;;;;;;;3.73;1.30;;;;;;;8.64;76.03;93466.84;5031573;28;20256;-61
2021/12/03 04:40:39;;;;;;;2.20;1.77;;;;;;;8.63;78.95;93407.78;5031881;28;20190;-61
2021/12/03 04:43:05;;;;;;;6.23;1.87;;;;;;;8.95;100.00;93407.97;5032009;28;20229;-61
2021/12/03 04:45:31;;;;;;;3.03;1.70;;;;;;;9.32;100.00;93421.16;5031493;28;20202;-60
2021/12/03 04:47:58;;;;;;;4.10;2.13;;;;;;;9.81;100.00;93434.78;5031755;28;20202;-60
2021/12/03 04:50:27;;;;;;;3.03;1.90;;;;;;;10.51;100.00;93460.59;5031601;28;20261;-62
2021/12/03 04:52:53;;;;;;;2.13;1.60;;;;;;;10.32;90.16;93613.31;5031807;28;20713;-60
2021/12/03 04:55:19;;;;;;;2.37;1.87;;;;;;;9.98;89.74;93568.41;5031223;28;20179;-61
2021/12/03 04:57:45;;;;;;;2.87;1.97;;;;;;;9.47;91.33;93544.84;5031934;28;20198;-62
2021/12/03 05:00:15;;;;;;;3.63;1.70;;;;;;;9.44;91.27;93538.34;5031384;28;20232;-62
2021/12/03 05:02:40;;;;;;;6.13;2.27;;;;;;;9.35;92.39;93520.69;5032026;28;20206;-61
2021/12/03 05:05:07;;;;;;;4.23;2.50;;;;;;;9.32;92.60;93537.00;5030077;28;20189;-62
2021/12/03 05:10:06;;;;;;;2.30;1.90;;;;;;;9.19;91.13;93551.81;5031871;28;20177;-61
2021/12/03 05:12:32;;;;;;;3.27;2.23;;;;;;;9.03;92.43;93521.31;5032064;28;20206;-64
2021/12/03 05:15:00;;;;;;;2.70;2.00;;;;;;;8.93;94.22;93497.75;5031641;28;20174;-64
2021/12/03 05:17:25;;;;;;;3.40;2.00;;;;;;;8.91;95.07;93492.03;5031353;28;20602;-64
2021/12/03 05:19:51;;;;;;;4.90;2.23;;;;;;;8.93;93.22;93520.56;5031340;28;20269;-63
2021/12/03 05:22:17;;;;;;;4.27;1.90;;;;;;;8.89;93.47;93522.59;5029966;28;20210;-64
2021/12/03 05:24:49;;;;;;;2.13;1.87;;;;;;;8.93;92.21;93539.09;5031694;28;20236;-62
2021/12/03 05:27:17;;;;;;;2.43;1.63;;;;;;;8.84;94.15;93527.34;5034963;28;20198;-61
2021/12/03 05:29:43;;;;;;;4.80;2.37;;;;;;;8.79;93.00;93523.63;5034839;28;20185;-63
2021/12/03 05:32:10;;;;;;;2.20;1.73;;;;;;;8.82;93.02;93528.41;5034392;28;20256;-62
2021/12/03 05:34:36;;;;;;;4.23;1.90;;;;;;;8.66;94.75;93502.97;5033167;28;20182;-61
2021/12/03 05:37:02;;;;;;;3.27;1.70;;;;;;;8.78;94.02;93520.31;5034946;28;20221;-63
2021/12/03 05:39:28;;;;;;;3.47;2.00;;;;;;;8.88;93.24;93545.56;5034824;28;20185;-64
2021/12/03 05:41:53;;;;;;;6.60;2.23;;;;;;;8.72;94.10;93553.84;5033280;28;20206;-60
2021/12/03 05:44:37;;;;;;;3.43;2.40;;;;;;;8.62;94.00;93537.13;5034412;28;20669;-64
2021/12/03 05:47:04;;;;;;;3.63;2.33;;;;;;;8.70;94.78;93522.00;5033219;28;20241;-63
2021/12/03 05:49:29;;;;;;;2.23;1.73;;;;;;;8.68;95.47;93522.16;5034884;28;20225;-60
2021/12/03 05:51:55;;;;;;;4.13;2.13;;;;;;;8.68;95.47;93528.94;5034016;28;20203;-61
2021/12/03 05:54:21;;;;;;;4.03;2.20;;;;;;;8.90;95.66;93536.88;5032844;28;20231;-62
2021/12/03 05:56:48;;;;;;;3.40;1.93;;;;;;;9.11;93.72;93582.19;5032772;28;20279;-65
2021/12/03 05:59:13;;;;;;;3.27;1.90;;;;;;;9.10;92.02;93601.66;5032857;28;20269;-63
2021/12/03 06:01:39;;;;;;;2.53;1.90;;;;;;;8.98;93.47;93574.97;5033981;28;20221;-61
2021/12/03 06:04:04;;;;;;;2.93;1.70;;;;;;;8.94;93.16;93570.31;5034399;28;20190;-63
2021/12/03 06:06:30;;;;;;;5.57;2.30;;;;;;;8.76;95.78;93532.34;5034171;28;20206;-65
2021/12/03 06:08:59;;;;;;;5.67;2.30;;;;;;;9.40;98.34;93614.84;5034352;28;20182;-64
2021/12/03 06:11:26;;;;;;;3.43;2.63;;;;;;;9.32;95.09;93610.53;5032907;28;20297;-62
2021/12/03 06:13:51;;;;;;;4.33;2.30;;;;;;;9.18;93.92;93632.16;5033932;28;20171;-64
2021/12/03 06:16:17;;;;;;;3.97;2.63;;;;;;;8.96;94.04;93607.25;5033846;28;20233;-63
2021/12/03 06:18:42;;;;;;;6.33;2.43;;;;;;;9.01;95.49;93582.25;5033886;28;20228;-64
2021/12/03 06:21:10;;;;;;;5.40;2.07;;;;;;;9.15;94.75;93608.84;5033780;28;20210;-61
2021/12/03 06:23:36;;;;;;;5.23;2.63;;;;;;;9.13;94.34;93605.66;5034127;28;20202;-64
2021/12/03 06:26:03;;;;;;;4.33;2.30;;;;;;;9.10;95.92;93555.22;5032371;28;20269;-64
2021/12/03 06:28:29;;;;;;;3.30;2.63;;;;;;;9.23;95.42;93581.00;5034095;28;20225;-64
2021/12/03 06:30:55;;;;;;;4.43;2.50;;;;;;;9.17;93.95;93582.38;5034257;28;20640;-66
2021/12/03 06:33:21;;;;;;;2.73;1.77;;;;;;;9.28;95.34;93571.19;5033997;28;20174;-61
2021/12/03 06:35:47;;;;;;;2.30;2.00;;;;;;;9.17;94.33;93599.34;5033726;28;20214;-60
2021/12/03 06:38:14;;;;;;;3.63;2.13;;;;;;;9.12;94.75;93571.09;5033027;28;20175;-63
2021/12/03 06:40:39;;;;;;;4.50;2.57;;;;;;;9.10;95.56;93562.84;5033542;28;20604;-65
2021/12/03 06:43:06;;;;;;;2.97;2.23;;;;;;;9.17;94.65;93612.03;5034890;28;20285;-63
2021/12/03 06:45:31;;;;;;;3.10;1.73;;;;;;;9.05;93.80;93606.38;5034239;28;20170;-65
2021/12/03 06:47:57;;;;;;;3.43;2.23;;;;;;;9.03;95.56;93582.91;5032985;28;20688;-63
2021/12/03 06:50:24;;;;;;;5.07;2.50;;;;;;;9.17;95.62;93594.28;5032803;28;20182;-65
2021/12/03 06:53:02;;;;;;;2.93;2.23;;;;;;;9.20;95.26;93602.38;5034057;28;20206;-61
2021/12/03 06:55:28;;;;;;;3.70;1.80;;;;;;;9.26;94.94;93611.13;5034278;28;20181;-62
2021/12/03 06:57:55;;;;;;;3.90;2.30;;;;;;;9.35;93.92;93617.06;5034514;28;20285;-63
2021/12/03 07:00:22;;;;;;;4.00;2.20;;;;;;;9.37;92.81;93632.91;5033349;28;20181;-63
2021/12/03 07:02:48;;;;;;;4.83;2.00;;;;;;;9.45;92.98;93643.13;5033380;28;20198;-65
2021/12/03 07:05:14;;;;;;;3.40;2.30;;;;;;;9.38;93.86;93612.47;5033191;28;20175;-66
2021/12/03 07:07:41;;;;;;;4.83;2.27;;;;;;;9.40;94.49;93612.31;5034037;28;20206;-61
2021/12/03 07:10:08;;;;;;;4.30;2.00;;;;;;;9.48;94.82;93613.19;5032674;28;20260;-60
2021/12/03 07:12:34;;;;;;;6.30;2.47;;;;;;;9.49;93.55;93624.13;5033369;28;20293;-63
2021/12/03 07:15:00;;;;;;;5.53;2.70;;;;;;;9.58;94.82;93602.91;5033315;28;20178;-63
2021/12/03 07:17:30;;;;;;;5.80;2.77;;;;;;;9.66;96.57;93575.06;5033160;28;20224;-61
2021/12/03 07:19:57;;;;;;;5.07;2.40;;;;;;;9.83;94.42;93605.47;5033131;28;20299;-61
2021/12/03 07:22:27;;;;;;;4.47;3.13;;;;;;;9.86;95.60;93591.66;5031625;28;20599;-63
2021/12/03 07:24:53;;;;;;;5.60;2.77;;;;;;;9.96;95.31;93603.28;5031560;28;20183;-64
2021/12/03 07:27:19;;;;;;;4.77;2.70;;;;;;;10.02;95.92;93597.59;5032978;28;20285;-66
2021/12/03 07:29:47;;;;;;;7.67;2.80;;;;;;;10.09;93.35;93646.84;5032117;28;20185;-63
2021/12/03 07:32:18;;;;;;;4.37;2.57;;;;;;;10.16;91.78;93657.19;5033026;28;20301;-63
2021/12/03 07:34:44;;;;;;;6.13;3.20;;;;;;;10.16;92.27;93643.72;5032643;28;20206;-64
2021/12/03 07:37:10;;;;;;;7.70;2.90;;;;;;;10.18;93.09;93617.22;5031003;28;20760;-64
2021/12/03 07:39:36;;;;;;;5.93;2.43;;;;;;;10.26;93.59;93598.69;5032334;28;20567;-65
2021/12/03 07:42:03;;;;;;;5.13;2.47;;;;;;;10.50;92.74;93616.53;5032004;28;20214;-66
2021/12/03 07:44:28;;;;;;;6.90;2.70;;;;;;;10.71;91.22;93624.50;5032362;28;20170;-63
2021/12/03 07:46:54;;;;;;;4.53;2.30;;;;;;;10.88;91.81;93644.75;5032168;28;20564;-63
2021/12/03 07:49:21;;;;;;;6.03;2.10;;;;;;;11.11;89.42;93672.88;5030253;28;20185;-64
2021/12/03 07:51:47;;;;;;;4.27;1.73;;;;;;;11.31;89.33;93681.81;5032244;28;20289;-65
2021/12/03 07:54:12;;;;;;;5.33;2.10;;;;;;;11.41;90.66;93636.66;5032598;28;20261;-63
2021/12/03 07:56:38;;;;;;;4.10;1.87;;;;;;;11.44;91.38;93618.53;5032162;28;20226;-62
2021/12/03 07:59:04;;;;;;;4.73;1.80;;;;;;;11.65;90.95;93631.56;5030704;28;20189;-63
2021/12/03 08:01:30;;;;;;;4.97;1.50;;;;;;;11.84;90.51;93639.84;5031967;28;20719;-62
2021/12/03 08:03:56;;;;;;;6.27;1.80;;;;;;;12.01;90.30;93667.66;5030654;28;20225;-65
2021/12/03 08:06:22;;;;;;;6.07;1.60;;;;;;;12.14;90.85;93650.09;5032143;28;20229;-64
2021/12/03 08:08:47;;;;;;;3.83;1.47;;;;;;;12.23;90.28;93656.75;5030703;28;20175;-61
2021/12/03 08:11:14;;;;;;;2.50;1.20;;;;;;;12.24;89.01;93672.84;5032261;28;20296;-64
2021/12/03 08:13:39;;;;;;;12.20;2.00;;;;;;;12.41;87.99;93687.91;5030763;28;20594;-66
2021/12/03 08:16:05;;;;;;;8.07;1.97;;;;;;;12.54;87.55;93695.06;5031748;28;20291;-65
2021/12/03 08:18:31;;;;;;;3.07;1.60;;;;;;;12.42;89.33;93664.00;5032038;28;20178;-64
2021/12/03 08:20:56;;;;;;;3.30;1.30;;;;;;;12.50;87.15;93714.19;5031425;28;20272;-64
2021/12/03 08:23:28;;;;;;;6.93;3.57;;;;;;;12.49;88.01;93697.28;5031832;28;20182;-63
2021/12/03 08:25:54;;;;;;;3.70;1.43;;;;;;;12.59;86.48;93703.78;5031638;28;20182;-63
2021/12/03 08:28:20;;;;;;;3.10;1.47;;;;;;;12.76;85.99;93724.91;5031822;28;20185;-64
2021/12/03 08:30:51;;;;;;;4.43;1.37;;;;;;;12.77;85.37;93716.28;5031900;28;20182;-66
2021/12/03 08:33:17;;;;;;;5.07;1.20;;;;;;;12.68;88.31;93665.50;5031723;28;20639;-64
2021/12/03 08:35:43;;;;;;;4.77;2.13;;;;;;;12.75;88.33;93672.31;5031166;28;20202;-62
2021/12/03 08:38:08;;;;;;;2.07;1.10;;;;;;;12.75;88.58;93663.84;5031269;28;20201;-63
2021/12/03 08:40:35;;;;;;;3.93;1.20;;;;;;;13.02;84.50;93752.69;5030840;28;20189;-64
2021/12/03 08:43:00;;;;;;;3.80;1.53;;;;;;;13.02;83.34;93750.94;5030178;28;20654;-63
2021/12/03 08:45:26;;;;;;;4.67;1.50;;;;;;;13.30;84.75;93733.44;5030548;28;20190;-64
2021/12/03 08:48:02;;;;;;;3.03;1.57;;;;;;;13.58;83.82;93757.50;5031209;28;20275;-64
2021/12/03 08:50:34;;;;;;;4.23;1.87;;;;;;;13.64;82.33;93756.84;5030178;28;20178;-65
2021/12/03 08:55:34;;;;;;;6.63;1.83;;;;;;;13.67;81.69;93753.97;5031191;28;20162;-62
2021/12/03 08:58:00;;;;;;;3.93;1.77;;;;;;;13.55;81.82;93746.84;5031373;28;20260;-66
2021/12/03 09:00:25;;;;;;;2.30;1.43;;;;;;;13.25;83.12;93728.84;5032218;28;20182;-65
2021/12/03 09:02:51;;;;;;;2.67;1.50;;;;;;;13.21;82.76;93727.59;5033874;28;20221;-62
2021/12/03 09:05:16;;;;;;;7.10;1.87;;;;;;;13.36;82.16;93743.78;5035567;28;20188;-65
2021/12/03 09:07:42;;;;;;;5.77;1.67;;;;;;;13.38;81.21;93759.72;5035070;28;20244;-64
2021/12/03 09:10:11;;;;;;;6.30;1.30;;;;;;;13.23;79.85;93781.03;5035192;28;20256;-64
2021/12/03 09:12:37;;;;;;;3.93;1.13;;;;;;;13.12;80.42;93772.00;5033017;28;20765;-62
2021/12/03 09:15:07;;;;;;;5.93;1.40;;;;;;;13.09;82.00;93743.47;5031340;28;20182;-62
2021/12/03 09:20:07;;;;;;;2.27;1.23;;;;;;;13.16;81.40;93757.94;5035394;28;20241;-64
2021/12/03 09:22:39;;;;;;;3.27;1.20;;;;;;;13.28;79.10;93805.09;5035088;28;20205;-61
2021/12/03 09:25:07;;;;;;;3.90;1.10;;;;;;;13.37;76.81;93816.06;5035134;28;20201;-64
2021/12/03 09:27:33;;;;;;;2.20;1.10;;;;;;;13.39;76.71;93827.66;5033878;28;20217;-62
2021/12/03 09:29:58;;;;;;;3.43;1.00;;;;;;;13.41;75.52;93825.75;5034988;28;20267;-63
2021/12/03 09:32:31;;;;;;;3.20;0.90;;;;;;;13.44;74.95;93802.44;5033649;28;20210;-66
2021/12/03 09:34:56;;;;;;;3.00;1.20;;;;;;;13.43;75.30;93793.19;5034463;28;20174;-61
2021/12/03 09:37:22;;;;;;;7.80;1.60;;;;;;;13.31;76.67;93742.69;5033206;28;20244;-60
2021/12/03 09:39:48;;;;;;;4.97;1.30;;;;;;;13.37;76.33;93767.56;5032670;28;20178;-61
2021/12/03 09:42:18;;;;;;;6.57;1.37;;;;;;;13.33;75.71;93813.03;5034893;28;20210;-61
2021/12/03 09:44:46;;;;;;;2.40;0.90;;;;;;;13.29;76.48;93788.78;5034801;28;20491;-64
2021/12/03 09:47:13;;;;;;;2.37;1.17;;;;;;;13.43;74.33;93817.94;5033142;28;20217;-60
2021/12/03 09:49:41;;;;;;;4.03;1.00;;;;;;;13.46;72.25;93831.16;5034524;28;20182;-64
2021/12/03 09:54:47;;;;;;;9.10;1.43;;;;;;;13.48;69.75;93797.78;5034457;28;20275;-62
2021/12/03 09:57:44;;;;;;;9.27;1.53;;;;;;;13.54;67.34;93786.91;5034534;28;20244;-64
2021/12/03 10:20:14;;;;;;;8.13;1.47;;;;;;;13.62;63.83;93802.19;5033866;28;20622;-61
2021/12/03 10:33:45;;;;;;;7.33;1.13;;;;;;;13.74;61.20;93848.56;5034067;28;20260;-63
2021/12/03 10:44:28;;;;;;;8.50;1.33;;;;;;;14.52;58.34;93895.19;5033742;28;20579;-65
2021/12/03 10:47:21;;;;;;;5.57;1.10;;;;;;;14.57;60.07;93813.59;5031749;28;20356;-64
2021/12/03 10:50:24;;;;;;;5.90;1.42;;;;;;;14.81;60.93;93803.94;5031826;28;20163;-61
2021/12/03 11:07:03;;;;;;;3.47;1.35;;;;;;;14.67;58.22;93843.09;5032578;28;20630;-61
2021/12/03 11:42:06;;;;;;;5.90;1.10;;;;;;;14.24;58.63;93815.66;5032102;28;20364;-64
2021/12/03 13:00:54;;;;;;;6.47;1.67;;;;;;;14.27;57.57;93769.28;5038736;22;20238;-62
2021/12/03 14:36:18;;;;;;;3.37;1.17;;;;;;;14.00;56.43;93839.59;5033762;28;20545;-61
2021/12/03 14:51:15;;;;;;;9.68;1.75;;;;;;;14.11;55.66;93849.44;5033211;28;20647;-61
2021/12/03 14:56:15;;;;;;;3.60;1.10;;;;;;;14.07;56.61;93814.16;5033074;28;20300;-63
2021/12/03 14:58:49;;;;;;;3.20;1.00;;;;;;;14.04;56.32;93824.72;5031278;28;20170;-63
2021/12/03 15:06:32;;;;;;;4.03;1.30;;;;;;;13.94;57.37;93817.28;5032586;28;20199;-63
2021/12/03 15:38:30;;;;;;;8.10;1.50;;;;;;;14.20;55.94;93873.19;5032913;28;20221;-64
2021/12/03 15:55:04;;;;;;;2.37;1.00;;;;;;;13.80;58.07;93820.59;5039372;22;20711;-64
2021/12/03 15:57:36;;;;;;;4.17;1.20;;;;;;;13.96;57.37;93842.66;5031742;28;20295;-65
2021/12/03 16:05:58;;;;;;;5.20;1.57;;;;;;;13.96;60.03;93797.47;5032256;28;20224;-65
2021/12/03 16:08:26;;;;;;;7.47;2.10;;;;;;;13.99;60.90;93775.91;5032212;28;20186;-64
2021/12/03 16:13:42;;;;;;;10.48;3.97;;;;;;;13.65;65.49;93686.13;5031311;28;20273;-63
2021/12/03 16:26:21;;;;;;;10.40;3.92;;;;;;;13.29;69.75;93628.00;5031765;28;20178;-61
2021/12/03 16:53:31;;;;;;;7.90;3.50;;;;;;;9.91;89.84;93680.84;5031819;28;20224;-64
2021/12/03 16:58:21;;;;;;;3.60;2.77;;;;;;;9.41;93.37;93707.78;5031397;22;20777;-62
2021/12/03 17:07:15;;;;;;;6.13;3.13;;;;;;;9.73;91.83;93759.56;5031241;28;20210;-65
2021/12/03 17:09:59;;;;;;;11.17;4.40;;;;;;;9.60;92.54;93748.19;5031074;28;20232;-64
2021/12/03 18:00:05;;;;;;;1.70;1.60;;;;;;;9.36;90.50;93846.88;5034316;28;20261;-61
2021/12/03 18:02:37;;;;;;;2.20;1.40;;;;;;;8.82;90.64;93862.88;5033025;28;20221;-63
2021/12/03 18:55:59;;;;;;;3.87;1.97;;;;;;;5.75;100.00;93895.84;5033284;28;20257;-61
2021/12/03 18:58:27;;;;;;;2.50;1.70;;;;;;;5.65;100.00;93892.44;5017911;28;20205;-60
2021/12/03 19:00:54;;;;;;;3.40;2.20;;;;;;;5.49;100.00;93880.22;5032784;28;20231;-61
2021/12/03 19:03:57;;;;;;;3.17;1.90;;;;;;;5.47;100.00;93881.25;5032960;28;20179;-62
2021/12/03 19:06:32;;;;;;;3.57;2.23;;;;;;;5.57;100.00;93889.72;5033075;28;20301;-61
2021/12/03 19:14:22;;;;;;;3.00;2.07;;;;;;;5.60;100.00;93895.31;5011885;28;20208;-64
2021/12/03 19:16:48;;;;;;;6.10;3.17;;;;;;;5.55;100.00;93896.59;5032745;28;20255;-63
2021/12/03 19:19:15;;;;;;;2.57;1.87;;;;;;;5.63;100.00;93909.41;5032918;28;20602;-64
2021/12/03 19:21:43;;;;;;;3.33;1.77;;;;;;;5.24;100.00;93900.66;5032737;28;20231;-62
2021/12/03 19:24:11;;;;;;;4.17;2.20;;;;;;;5.20;100.00;93906.03;5032443;28;20224;-61
2021/12/03 19:26:45;;;;;;;4.03;2.03;;;;;;;5.22;100.00;93904.19;5032735;28;20212;-62
2021/12/03 19:29:16;;;;;;;2.00;1.60;;;;;;;5.28;100.00;93906.25;5031183;28;20217;-63
2021/12/03 19:31:43;;;;;;;2.67;1.67;;;;;;;5.06;100.00;93917.97;5032463;28;20226;-60
2021/12/03 19:34:10;;;;;;;3.73;1.97;;;;;;;5.13;100.00;93923.31;5032511;28;20186;-61
2021/12/03 19:36:40;;;;;;;2.83;2.03;;;;;;;5.06;100.00;93935.59;5032442;28;20219;-64
2021/12/03 19:39:08;;;;;;;4.03;1.80;;;;;;;4.94;100.00;93938.22;5032515;28;20184;-64
2021/12/03 19:41:44;;;;;;;2.17;1.90;;;;;;;4.90;100.00;93930.09;5032321;28;20227;-61
2021/12/03 19:44:15;;;;;;;2.30;1.40;;;;;;;4.94;100.00;93941.56;5032099;28;20174;-63